Smithton, Missouri
Current Conditions -  °F | °C
As of 4:53 PM on Saturday 25 Oct 2014 (Local Time) from KDMO Reporting Station
Clear Clear  
Wind Chill: 81°   Ceiling: Unl
Heat Index: 82°   Visibility: 7mi
Dew Point: 60°   Wind: 0mph
Humidity: 49%   Direction: NA
Pressure: 30.03"   Gusts: NA
Location:  38.68°N, 93.09°W
Report Text: KDMO 252153Z AUTO 00000KT 7SM CLR 27/16 A3003 RMK AO2 SLP162 T02720156
Loading
Personal Weather Stations






























Interactive Weather Map
Tropical Storm Tracking
New forecast layout! Learn more

10-Day Weather Forecast

Advertisements
Track Severe Weather on mobile